Time,TemperatureF,DewpointF,PressureIn,WindDirection,WindDirectionDegrees,WindSpeedMPH,WindSpeedGustMPH,Humidity,HourlyPrecipIn,Conditions,Clouds,dailyrainin,SoftwareType,DateUTC
2013-08-11 00:00:00,63.9,56.5,30.07,WSW,257,0.0,0.0,77,0.00,,,0.00,VWS V14.01,2013-08-11 04:00:00,
2013-08-11 00:01:00,63.9,56.5,30.07,WSW,257,0.0,0.0,77,0.00,,,0.00,VWS V14.01,2013-08-11 04:01:00,
2013-08-11 00:02:00,63.7,56.3,30.07,WSW,257,0.0,0.0,77,0.00,,,0.00,VWS V14.01,2013-08-11 04:02:00,
2013-08-11 00:05:00,63.5,56.2,30.07,WSW,257,0.0,0.0,77,0.00,,,0.00,VWS V14.01,2013-08-11 04:05:00,
2013-08-11 00:07:00,63.5,56.2,30.07,WSW,257,0.0,0.0,77,0.00,,,0.00,VWS V14.01,2013-08-11 04:07:00,
2013-08-11 00:10:00,63.3,56.0,30.07,WSW,257,0.0,0.0,77,0.00,,,0.00,VWS V14.01,2013-08-11 04:10:00,
2013-08-11 00:12:00,63.5,56.5,30.07,WSW,257,0.0,0.0,78,0.00,,,0.00,VWS V14.01,2013-08-11 04:12:00,
2013-08-11 00:15:00,63.3,56.3,30.07,WSW,257,0.0,0.0,78,0.00,,,0.00,VWS V14.01,2013-08-11 04:15:00,
2013-08-11 00:17:00,63.5,56.5,30.07,WSW,257,0.0,0.0,78,0.00,,,0.00,VWS V14.01,2013-08-11 04:17:00,
2013-08-11 00:20:00,63.5,56.5,30.07,WSW,257,0.0,0.0,78,0.00,,,0.00,VWS V14.01,2013-08-11 04:20:00,
2013-08-11 00:22:00,63.5,56.5,30.07,WSW,257,0.0,0.0,78,0.00,,,0.00,VWS V14.01,2013-08-11 04:22:00,
2013-08-11 00:25:00,63.5,56.5,30.07,WSW,257,0.0,0.0,78,0.00,,,0.00,VWS V14.01,2013-08-11 04:25:00,
2013-08-11 00:27:00,63.5,56.5,30.07,WSW,257,0.0,0.0,78,0.00,,,0.00,VWS V14.01,2013-08-11 04:27:00,
2013-08-11 00:30:00,63.5,56.5,30.07,WSW,257,0.0,0.0,78,0.00,,,0.00,VWS V14.01,2013-08-11 04:30:00,
2013-08-11 00:32:00,63.5,56.5,30.07,WSW,257,0.0,0.0,78,0.00,,,0.00,VWS V14.01,2013-08-11 04:32:00,
2013-08-11 00:35:00,63.5,56.5,30.07,WSW,257,0.0,0.0,78,0.00,,,0.00,VWS V14.01,2013-08-11 04:35:00,
2013-08-11 00:37:00,63.3,56.3,30.07,WSW,257,0.0,0.0,78,0.00,,,0.00,VWS V14.01,2013-08-11 04:37:00,
2013-08-11 00:40:00,63.3,56.3,30.07,WSW,257,0.0,0.0,78,0.00,,,0.00,VWS V14.01,2013-08-11 04:40:00,
2013-08-11 00:42:00,63.1,56.2,30.07,WSW,257,0.0,0.0,78,0.00,,,0.00,VWS V14.01,2013-08-11 04:42:00,
2013-08-11 00:45:00,63.1,55.8,30.07,WSW,257,0.0,0.0,77,0.00,,,0.00,VWS V14.01,2013-08-11 04:45:00,
2013-08-11 00:47:00,63.1,56.2,30.07,WSW,257,0.0,0.0,78,0.00,,,0.00,VWS V14.01,2013-08-11 04:47:00,
2013-08-11 00:50:00,63.0,56.0,30.07,WSW,257,0.0,0.0,78,0.00,,,0.00,VWS V14.01,2013-08-11 04:50:00,
2013-08-11 00:52:00,63.0,56.0,30.07,WSW,257,0.0,0.0,78,0.00,,,0.00,VWS V14.01,2013-08-11 04:52:00,
2013-08-11 00:55:00,63.0,56.0,30.07,WSW,257,0.0,0.0,78,0.00,,,0.00,VWS V14.01,2013-08-11 04:55:00,
2013-08-11 00:57:00,63.0,56.0,30.07,WSW,257,0.0,0.0,78,0.00,,,0.00,VWS V14.01,2013-08-11 04:57:00,
2013-08-11 01:00:00,63.0,56.0,30.07,WSW,257,0.0,0.0,78,0.00,,,0.00,VWS V14.01,2013-08-11 05:00:00,
2013-08-11 01:02:00,62.8,55.8,30.07,WSW,257,0.0,0.0,78,0.00,,,0.00,VWS V14.01,2013-08-11 05:02:00,
2013-08-11 01:05:00,62.8,55.8,30.07,WSW,257,0.0,0.0,78,0.00,,,0.00,VWS V14.01,2013-08-11 05:05:00,
2013-08-11 01:07:00,62.6,55.7,30.07,WSW,257,0.0,0.0,78,0.00,,,0.00,VWS V14.01,2013-08-11 05:07:00,
2013-08-11 01:10:00,62.6,55.7,30.07,WSW,257,0.0,0.0,78,0.00,,,0.00,VWS V14.01,2013-08-11 05:10:00,
2013-08-11 01:12:00,62.6,55.7,30.07,WSW,257,0.0,0.0,78,0.00,,,0.00,VWS V14.01,2013-08-11 05:12:00,
2013-08-11 01:15:00,62.6,55.7,30.07,WSW,257,0.0,0.0,78,0.00,,,0.00,VWS V14.01,2013-08-11 05:15:00,
2013-08-11 01:18:00,62.4,55.5,30.07,WSW,257,0.0,0.0,78,0.00,,,0.00,VWS V14.01,2013-08-11 05:18:00,
2013-08-11 01:20:00,62.4,55.5,30.07,WSW,257,0.0,0.0,78,0.00,,,0.00,VWS V14.01,2013-08-11 05:20:00,
2013-08-11 01:23:00,62.4,55.5,30.07,WSW,257,0.0,0.0,78,0.00,,,0.00,VWS V14.01,2013-08-11 05:23:00,
2013-08-11 01:25:00,62.4,55.5,30.07,WSW,257,0.0,0.0,78,0.00,,,0.00,VWS V14.01,2013-08-11 05:25:00,
2013-08-11 01:28:00,62.2,55.7,30.07,WSW,257,0.0,0.0,79,0.00,,,0.00,VWS V14.01,2013-08-11 05:28:00,
2013-08-11 01:30:00,62.2,55.7,30.07,WSW,257,0.0,0.0,79,0.00,,,0.00,VWS V14.01,2013-08-11 05:30:00,
2013-08-11 01:33:00,62.1,55.5,30.07,WSW,257,0.0,0.0,79,0.00,,,0.00,VWS V14.01,2013-08-11 05:33:00,
2013-08-11 01:35:00,62.2,55.7,30.07,WSW,257,0.0,0.0,79,0.00,,,0.00,VWS V14.01,2013-08-11 05:35:00,
2013-08-11 01:38:00,62.1,55.5,30.07,WSW,257,0.0,0.0,79,0.00,,,0.00,VWS V14.01,2013-08-11 05:38:00,
2013-08-11 01:40:00,62.1,55.5,30.07,WSW,257,0.0,0.0,79,0.00,,,0.00,VWS V14.01,2013-08-11 05:40:00,
2013-08-11 01:43:00,61.9,55.3,30.07,WSW,257,0.0,0.0,79,0.00,,,0.00,VWS V14.01,2013-08-11 05:43:00,
2013-08-11 01:45:00,61.9,55.3,30.07,WSW,257,0.0,0.0,79,0.00,,,0.00,VWS V14.01,2013-08-11 05:45:00,
2013-08-11 01:49:00,61.9,55.3,30.07,WSW,257,0.0,0.0,79,0.00,,,0.00,VWS V14.01,2013-08-11 05:49:00,
2013-08-11 01:50:00,61.9,55.3,30.07,WSW,257,0.0,0.0,79,0.00,,,0.00,VWS V14.01,2013-08-11 05:50:00,
2013-08-11 01:54:00,61.7,55.1,30.07,WSW,257,0.0,0.0,79,0.00,,,0.00,VWS V14.01,2013-08-11 05:54:00,
2013-08-11 01:55:00,61.7,55.1,30.07,WSW,257,0.0,0.0,79,0.00,,,0.00,VWS V14.01,2013-08-11 05:55:00,
2013-08-11 01:59:00,61.7,55.1,30.07,WSW,257,0.0,0.0,79,0.00,,,0.00,VWS V14.01,2013-08-11 05:59:00,
2013-08-11 02:00:00,61.7,55.5,30.07,WSW,257,0.0,0.0,80,0.00,,,0.00,VWS V14.01,2013-08-11 06:00:00,
2013-08-11 02:04:00,61.7,55.5,30.07,WSW,257,0.0,0.0,80,0.00,,,0.00,VWS V14.01,2013-08-11 06:04:00,
2013-08-11 02:05:00,61.7,55.5,30.07,WSW,257,0.0,0.0,80,0.00,,,0.00,VWS V14.01,2013-08-11 06:05:00,
2013-08-11 02:09:00,61.5,55.3,30.07,WSW,257,0.0,0.0,80,0.00,,,0.00,VWS V14.01,2013-08-11 06:09:00,
2013-08-11 02:10:00,61.5,55.3,30.07,WSW,257,0.0,0.0,80,0.00,,,0.00,VWS V14.01,2013-08-11 06:10:00,
2013-08-11 02:14:00,61.3,55.1,30.07,WSW,257,0.0,0.0,80,0.00,,,0.00,VWS V14.01,2013-08-11 06:14:00,
2013-08-11 02:15:00,61.3,55.1,30.07,WSW,257,0.0,0.0,80,0.00,,,0.00,VWS V14.01,2013-08-11 06:15:00,
2013-08-11 02:19:00,61.3,55.1,30.07,WSW,257,0.0,0.0,80,0.00,,,0.00,VWS V14.01,2013-08-11 06:19:00,
2013-08-11 02:20:00,61.3,55.1,30.07,WSW,257,0.0,0.0,80,0.00,,,0.00,VWS V14.01,2013-08-11 06:20:00,
2013-08-11 02:24:00,61.3,55.1,30.07,WSW,257,0.0,0.0,80,0.00,,,0.00,VWS V14.01,2013-08-11 06:24:00,
2013-08-11 02:25:00,61.3,55.1,30.07,WSW,257,0.0,0.0,80,0.00,,,0.00,VWS V14.01,2013-08-11 06:25:00,
2013-08-11 02:29:00,61.2,55.0,30.07,WSW,257,0.0,0.0,80,0.00,,,0.00,VWS V14.01,2013-08-11 06:29:00,
2013-08-11 02:30:00,61.2,55.0,30.07,WSW,257,0.0,0.0,80,0.00,,,0.00,VWS V14.01,2013-08-11 06:30:00,
2013-08-11 02:34:00,61.2,55.0,30.07,WSW,257,0.0,0.0,80,0.00,,,0.00,VWS V14.01,2013-08-11 06:34:00,
2013-08-11 02:35:00,61.2,55.0,30.07,WSW,257,0.0,0.0,80,0.00,,,0.00,VWS V14.01,2013-08-11 06:35:00,
2013-08-11 02:39:00,61.2,55.0,30.07,WSW,257,0.0,0.0,80,0.00,,,0.00,VWS V14.01,2013-08-11 06:39:00,
2013-08-11 02:40:00,61.2,55.0,30.07,WSW,257,0.0,0.0,80,0.00,,,0.00,VWS V14.01,2013-08-11 06:40:00,
2013-08-11 02:45:00,61.0,55.1,30.07,WSW,257,0.0,0.0,81,0.00,,,0.00,VWS V14.01,2013-08-11 06:45:00,
2013-08-11 02:50:00,61.0,55.1,30.07,WSW,257,0.0,0.0,81,0.00,,,0.00,VWS V14.01,2013-08-11 06:50:00,
2013-08-11 02:51:00,61.0,55.1,30.07,WSW,257,0.0,0.0,81,0.00,,,0.00,VWS V14.01,2013-08-11 06:51:00,
2013-08-11 02:55:00,61.0,55.1,30.10,WSW,257,0.0,0.0,81,0.00,,,0.00,VWS V14.01,2013-08-11 06:55:00,
2013-08-11 02:56:00,61.0,55.1,30.10,WSW,257,0.0,0.0,81,0.00,,,0.00,VWS V14.01,2013-08-11 06:56:00,
2013-08-11 03:00:00,60.8,54.9,30.10,WSW,257,0.0,0.0,81,0.00,,,0.00,VWS V14.01,2013-08-11 07:00:00,
2013-08-11 03:01:00,60.8,54.9,30.10,WSW,257,0.0,0.0,81,0.00,,,0.00,VWS V14.01,2013-08-11 07:01:00,
2013-08-11 03:05:00,60.8,54.9,30.10,WSW,257,0.0,0.0,81,0.00,,,0.00,VWS V14.01,2013-08-11 07:05:00,
2013-08-11 03:06:00,60.8,54.9,30.10,WSW,257,0.0,0.0,81,0.00,,,0.00,VWS V14.01,2013-08-11 07:06:00,
2013-08-11 03:10:00,60.8,54.9,30.10,WSW,257,0.0,0.0,81,0.00,,,0.00,VWS V14.01,2013-08-11 07:10:00,
2013-08-11 03:11:00,60.6,54.8,30.10,WSW,257,0.0,0.0,81,0.00,,,0.00,VWS V14.01,2013-08-11 07:11:00,
2013-08-11 03:15:00,60.6,54.8,30.10,WSW,257,0.0,0.0,81,0.00,,,0.00,VWS V14.01,2013-08-11 07:15:00,
2013-08-11 03:17:00,60.6,54.8,30.10,WSW,257,0.0,0.0,81,0.00,,,0.00,VWS V14.01,2013-08-11 07:17:00,
2013-08-11 03:20:00,60.6,55.1,30.10,WSW,257,0.0,0.0,82,0.00,,,0.00,VWS V14.01,2013-08-11 07:20:00,
2013-08-11 03:22:00,60.6,55.1,30.10,WSW,257,0.0,0.0,82,0.00,,,0.00,VWS V14.01,2013-08-11 07:22:00,
2013-08-11 03:25:00,60.4,54.9,30.10,WSW,257,0.0,0.0,82,0.00,,,0.00,VWS V14.01,2013-08-11 07:25:00,
2013-08-11 03:27:00,60.4,54.9,30.10,WSW,257,0.0,0.0,82,0.00,,,0.00,VWS V14.01,2013-08-11 07:27:00,
2013-08-11 03:30:00,60.4,54.9,30.10,WSW,257,0.0,0.0,82,0.00,,,0.00,VWS V14.01,2013-08-11 07:30:00,
2013-08-11 03:32:00,60.4,54.9,30.10,WSW,257,0.0,0.0,82,0.00,,,0.00,VWS V14.01,2013-08-11 07:32:00,
2013-08-11 03:35:00,60.4,54.9,30.10,WSW,257,0.0,0.0,82,0.00,,,0.00,VWS V14.01,2013-08-11 07:35:00,
2013-08-11 03:38:00,60.3,54.8,30.10,WSW,257,0.0,0.0,82,0.00,,,0.00,VWS V14.01,2013-08-11 07:38:00,
2013-08-11 03:40:00,60.3,54.8,30.10,WSW,257,0.0,0.0,82,0.00,,,0.00,VWS V14.01,2013-08-11 07:40:00,
2013-08-11 03:43:00,60.3,54.8,30.10,WSW,257,0.0,0.0,82,0.00,,,0.00,VWS V14.01,2013-08-11 07:43:00,
2013-08-11 03:45:00,60.3,54.8,30.10,WSW,257,0.0,0.0,82,0.00,,,0.00,VWS V14.01,2013-08-11 07:45:00,
2013-08-11 03:48:00,60.1,54.6,30.10,WSW,257,0.0,0.0,82,0.00,,,0.00,VWS V14.01,2013-08-11 07:48:00,
2013-08-11 03:50:00,60.1,54.6,30.10,WSW,257,0.0,0.0,82,0.00,,,0.00,VWS V14.01,2013-08-11 07:50:00,
2013-08-11 03:53:00,60.1,54.6,30.10,WSW,257,0.0,0.0,82,0.00,,,0.00,VWS V14.01,2013-08-11 07:53:00,
2013-08-11 03:55:00,60.1,54.6,30.10,WSW,257,0.0,0.0,82,0.00,,,0.00,VWS V14.01,2013-08-11 07:55:00,
2013-08-11 03:58:00,60.1,54.6,30.10,WSW,257,0.0,0.0,82,0.00,,,0.00,VWS V14.01,2013-08-11 07:58:00,
2013-08-11 04:00:00,60.1,54.6,30.10,WSW,257,0.0,0.0,82,0.00,,,0.00,VWS V14.01,2013-08-11 08:00:00,
2013-08-11 04:03:00,59.9,54.4,30.10,WSW,257,0.0,0.0,82,0.00,,,0.00,VWS V14.01,2013-08-11 08:03:00,
2013-08-11 04:05:00,59.9,54.4,30.10,WSW,257,0.0,0.0,82,0.00,,,0.00,VWS V14.01,2013-08-11 08:05:00,
2013-08-11 04:08:00,59.9,54.4,30.10,WSW,257,0.0,0.0,82,0.00,,,0.00,VWS V14.01,2013-08-11 08:08:00,
2013-08-11 04:10:00,59.9,54.4,30.10,WSW,257,0.0,0.0,82,0.00,,,0.00,VWS V14.01,2013-08-11 08:10:00,
2013-08-11 04:13:00,59.7,54.2,30.10,WSW,257,0.0,0.0,82,0.00,,,0.00,VWS V14.01,2013-08-11 08:13:00,
2013-08-11 04:15:00,59.7,54.2,30.10,WSW,257,0.0,0.0,82,0.00,,,0.00,VWS V14.01,2013-08-11 08:15:00,
2013-08-11 04:19:00,59.5,54.0,30.10,WSW,257,0.0,0.0,82,0.00,,,0.00,VWS V14.01,2013-08-11 08:19:00,
2013-08-11 04:20:00,59.5,54.0,30.10,WSW,257,0.0,0.0,82,0.00,,,0.00,VWS V14.01,2013-08-11 08:20:00,
2013-08-11 04:24:00,59.5,54.0,30.10,WSW,257,0.0,0.0,82,0.00,,,0.00,VWS V14.01,2013-08-11 08:24:00,
2013-08-11 04:25:00,59.5,54.0,30.10,WSW,257,0.0,0.0,82,0.00,,,0.00,VWS V14.01,2013-08-11 08:25:00,
2013-08-11 04:29:00,59.5,54.0,30.10,WSW,257,0.0,0.0,82,0.00,,,0.00,VWS V14.01,2013-08-11 08:29:00,
2013-08-11 04:30:00,59.5,54.0,30.10,WSW,257,0.0,0.0,82,0.00,,,0.00,VWS V14.01,2013-08-11 08:30:00,
2013-08-11 04:34:00,59.4,53.9,30.10,WSW,257,0.0,0.0,82,0.00,,,0.00,VWS V14.01,2013-08-11 08:34:00,
2013-08-11 04:35:00,59.4,53.9,30.10,WSW,257,0.0,0.0,82,0.00,,,0.00,VWS V14.01,2013-08-11 08:35:00,
2013-08-11 04:39:00,59.2,53.7,30.07,WSW,257,0.0,0.0,82,0.00,,,0.00,VWS V14.01,2013-08-11 08:39:00,
2013-08-11 04:40:00,59.2,53.7,30.07,WSW,257,0.0,0.0,82,0.00,,,0.00,VWS V14.01,2013-08-11 08:40:00,
2013-08-11 04:44:00,58.8,53.3,30.07,WSW,257,0.0,0.0,82,0.00,,,0.00,VWS V14.01,2013-08-11 08:44:00,
2013-08-11 04:45:00,58.8,53.3,30.07,WSW,257,0.0,0.0,82,0.00,,,0.00,VWS V14.01,2013-08-11 08:45:00,
2013-08-11 04:50:00,58.6,53.2,30.07,WSW,257,0.0,0.0,82,0.00,,,0.00,VWS V14.01,2013-08-11 08:50:00,
2013-08-11 04:55:00,58.5,53.0,30.10,WSW,257,0.0,0.0,82,0.00,,,0.00,VWS V14.01,2013-08-11 08:55:00,
2013-08-11 05:00:00,58.3,52.8,30.10,WSW,257,0.0,0.0,82,0.00,,,0.00,VWS V14.01,2013-08-11 09:00:00,
2013-08-11 05:01:00,58.3,52.8,30.10,WSW,257,0.0,0.0,82,0.00,,,0.00,VWS V14.01,2013-08-11 09:01:00,
2013-08-11 05:05:00,58.1,52.6,30.10,WSW,257,0.0,0.0,82,0.00,,,0.00,VWS V14.01,2013-08-11 09:05:00,
2013-08-11 05:06:00,58.1,52.6,30.10,WSW,257,0.0,0.0,82,0.00,,,0.00,VWS V14.01,2013-08-11 09:06:00,
2013-08-11 05:10:00,58.1,52.6,30.10,WSW,257,0.0,0.0,82,0.00,,,0.00,VWS V14.01,2013-08-11 09:10:00,
2013-08-11 05:11:00,58.1,52.6,30.10,WSW,257,0.0,0.0,82,0.00,,,0.00,VWS V14.01,2013-08-11 09:11:00,
2013-08-11 05:15:00,57.9,52.8,30.10,WSW,257,0.0,0.0,83,0.00,,,0.00,VWS V14.01,2013-08-11 09:15:00,
2013-08-11 05:16:00,57.9,52.8,30.10,WSW,257,0.0,0.0,83,0.00,,,0.00,VWS V14.01,2013-08-11 09:16:00,
2013-08-11 05:20:00,58.1,53.0,30.10,WSW,258,0.0,0.0,83,0.00,,,0.00,VWS V14.01,2013-08-11 09:20:00,
2013-08-11 05:21:00,58.1,53.0,30.10,WSW,257,0.0,0.0,83,0.00,,,0.00,VWS V14.01,2013-08-11 09:21:00,
2013-08-11 05:25:00,58.1,53.0,30.10,WSW,257,0.0,0.0,83,0.00,,,0.00,VWS V14.01,2013-08-11 09:25:00,
2013-08-11 05:27:00,58.3,53.2,30.10,WSW,257,0.0,0.0,83,0.00,,,0.00,VWS V14.01,2013-08-11 09:27:00,
2013-08-11 05:30:00,58.1,53.0,30.10,WSW,257,0.0,0.0,83,0.00,,,0.00,VWS V14.01,2013-08-11 09:30:00,
2013-08-11 05:32:00,57.9,52.8,30.10,WSW,257,0.0,0.0,83,0.00,,,0.00,VWS V14.01,2013-08-11 09:32:00,
2013-08-11 05:35:00,57.9,52.8,30.10,WSW,257,0.0,0.0,83,0.00,,,0.00,VWS V14.01,2013-08-11 09:35:00,
2013-08-11 05:37:00,57.9,52.8,30.10,WSW,257,0.0,0.0,83,0.00,,,0.00,VWS V14.01,2013-08-11 09:37:00,
2013-08-11 05:40:00,57.7,52.6,30.10,WSW,257,0.0,0.0,83,0.00,,,0.00,VWS V14.01,2013-08-11 09:40:00,
2013-08-11 05:43:00,57.6,52.4,30.10,WSW,257,0.0,0.0,83,0.00,,,0.00,VWS V14.01,2013-08-11 09:43:00,
2013-08-11 05:45:00,57.6,52.4,30.10,WSW,257,0.0,0.0,83,0.00,,,0.00,VWS V14.01,2013-08-11 09:45:00,
2013-08-11 05:48:00,57.4,52.3,30.10,WSW,257,0.0,0.0,83,0.00,,,0.00,VWS V14.01,2013-08-11 09:48:00,
2013-08-11 05:50:00,57.4,52.3,30.10,WSW,257,0.0,0.0,83,0.00,,,0.00,VWS V14.01,2013-08-11 09:50:00,
2013-08-11 05:53:00,57.2,52.1,30.10,WSW,257,0.0,0.0,83,0.00,,,0.00,VWS V14.01,2013-08-11 09:53:00,
2013-08-11 05:55:00,57.2,52.1,30.10,WSW,257,0.0,0.0,83,0.00,,,0.00,VWS V14.01,2013-08-11 09:55:00,
2013-08-11 05:58:00,57.2,52.1,30.10,WSW,257,0.0,0.0,83,0.00,,,0.00,VWS V14.01,2013-08-11 09:58:00,
2013-08-11 06:00:00,57.2,52.1,30.10,WSW,257,0.0,0.0,83,0.00,,,0.00,VWS V14.01,2013-08-11 10:00:00,
2013-08-11 06:03:00,57.2,52.1,30.10,WSW,257,0.0,0.0,83,0.00,,,0.00,VWS V14.01,2013-08-11 10:03:00,
2013-08-11 06:05:00,57.2,52.1,30.10,WSW,257,0.0,0.0,83,0.00,,,0.00,VWS V14.01,2013-08-11 10:05:00,
2013-08-11 06:08:00,57.2,52.4,30.10,WSW,257,0.0,0.0,84,0.00,,,0.00,VWS V14.01,2013-08-11 10:08:00,
2013-08-11 06:10:00,57.2,52.4,30.10,WSW,257,0.0,0.0,84,0.00,,,0.00,VWS V14.01,2013-08-11 10:10:00,
2013-08-11 06:13:00,57.4,52.6,30.10,WSW,257,0.0,0.0,84,0.00,,,0.00,VWS V14.01,2013-08-11 10:13:00,
2013-08-11 06:15:00,57.2,52.4,30.10,WSW,257,0.0,0.0,84,0.00,,,0.00,VWS V14.01,2013-08-11 10:15:00,
2013-08-11 06:18:00,57.0,52.2,30.10,WSW,257,0.0,0.0,84,0.00,,,0.00,VWS V14.01,2013-08-11 10:18:00,
2013-08-11 06:20:00,57.0,52.2,30.10,WSW,257,0.0,0.0,84,0.00,,,0.00,VWS V14.01,2013-08-11 10:20:00,
2013-08-11 06:24:00,56.8,52.1,30.13,WSW,257,0.0,0.0,84,0.00,,,0.00,VWS V14.01,2013-08-11 10:24:00,
2013-08-11 06:25:00,56.8,52.1,30.13,WSW,257,0.0,0.0,84,0.00,,,0.00,VWS V14.01,2013-08-11 10:25:00,
2013-08-11 06:29:00,57.0,52.2,30.13,WSW,257,0.0,0.0,84,0.00,,,0.00,VWS V14.01,2013-08-11 10:29:00,
2013-08-11 06:30:00,57.0,52.2,30.13,WSW,257,0.0,0.0,84,0.00,,,0.00,VWS V14.01,2013-08-11 10:30:00,
2013-08-11 06:34:00,57.0,52.6,30.13,WSW,257,0.0,0.0,85,0.00,,,0.00,VWS V14.01,2013-08-11 10:34:00,
2013-08-11 06:35:00,57.0,52.6,30.13,WSW,257,0.0,0.0,85,0.00,,,0.00,VWS V14.01,2013-08-11 10:35:00,
2013-08-11 06:39:00,56.8,52.4,30.13,WSW,257,0.0,0.0,85,0.00,,,0.00,VWS V14.01,2013-08-11 10:39:00,
2013-08-11 06:40:00,56.8,52.4,30.13,WSW,257,0.0,0.0,85,0.00,,,0.00,VWS V14.01,2013-08-11 10:40:00,
2013-08-11 06:44:00,57.0,52.6,30.13,WSW,257,0.0,0.0,85,0.00,,,0.00,VWS V14.01,2013-08-11 10:44:00,
2013-08-11 06:45:00,57.0,52.6,30.13,WSW,257,0.0,0.0,85,0.00,,,0.00,VWS V14.01,2013-08-11 10:45:00,
2013-08-11 06:49:00,57.2,52.7,30.13,WSW,257,0.0,0.0,85,0.00,,,0.00,VWS V14.01,2013-08-11 10:49:00,
2013-08-11 06:50:00,57.2,52.7,30.13,WSW,257,0.0,0.0,85,0.00,,,0.00,VWS V14.01,2013-08-11 10:50:00,
2013-08-11 06:54:00,57.2,52.7,30.13,WSW,257,0.0,0.0,85,0.00,,,0.00,VWS V14.01,2013-08-11 10:54:00,
2013-08-11 06:55:00,57.2,52.7,30.13,WSW,257,0.0,0.0,85,0.00,,,0.00,VWS V14.01,2013-08-11 10:55:00,
2013-08-11 06:59:00,57.2,52.7,30.13,WSW,257,0.0,0.0,85,0.00,,,0.00,VWS V14.01,2013-08-11 10:59:00,
2013-08-11 07:00:00,57.2,52.7,30.13,WSW,257,0.0,0.0,85,0.00,,,0.00,VWS V14.01,2013-08-11 11:00:00,
2013-08-11 07:05:00,57.4,52.9,30.13,WSW,257,0.0,0.0,85,0.00,,,0.00,VWS V14.01,2013-08-11 11:05:00,
2013-08-11 07:10:00,57.6,53.4,30.13,WSW,257,0.0,0.0,86,0.00,,,0.00,VWS V14.01,2013-08-11 11:10:00,
2013-08-11 07:15:00,57.9,53.8,30.13,WSW,257,0.0,0.0,86,0.00,,,0.00,VWS V14.01,2013-08-11 11:15:00,
2013-08-11 07:20:00,58.3,54.1,30.13,WSW,257,0.0,0.0,86,0.00,,,0.00,VWS V14.01,2013-08-11 11:20:00,
2013-08-11 07:25:00,58.6,54.5,30.13,WSW,257,0.0,0.0,86,0.00,,,0.00,VWS V14.01,2013-08-11 11:25:00,
2013-08-11 07:30:00,58.8,55.0,30.13,WSW,257,0.0,0.0,87,0.00,,,0.00,VWS V14.01,2013-08-11 11:30:00,
2013-08-11 07:35:00,59.2,55.0,30.13,WSW,257,0.0,0.0,86,0.00,,,0.00,VWS V14.01,2013-08-11 11:35:00,
2013-08-11 07:40:00,59.4,55.2,30.13,WSW,257,0.0,0.0,86,0.00,,,0.00,VWS V14.01,2013-08-11 11:40:00,
2013-08-11 07:45:00,59.7,55.5,30.13,WSW,257,0.0,0.0,86,0.00,,,0.00,VWS V14.01,2013-08-11 11:45:00,
2013-08-11 07:50:00,60.6,56.4,30.13,WSW,257,0.0,0.0,86,0.00,,,0.00,VWS V14.01,2013-08-11 11:50:00,
2013-08-11 07:51:00,60.8,56.6,30.13,WSW,257,0.0,0.0,86,0.00,,,0.00,VWS V14.01,2013-08-11 11:51:00,
2013-08-11 07:55:00,60.8,56.6,30.13,WSW,257,0.0,0.0,86,0.00,,,0.00,VWS V14.01,2013-08-11 11:55:00,
2013-08-11 07:56:00,61.0,56.8,30.13,WSW,257,0.0,0.0,86,0.00,,,0.00,VWS V14.01,2013-08-11 11:56:00,
2013-08-11 08:00:00,61.2,56.6,30.13,WSW,257,0.0,0.0,85,0.00,,,0.00,VWS V14.01,2013-08-11 12:00:00,
2013-08-11 08:01:00,61.3,56.8,30.13,WSW,257,0.0,0.0,85,0.00,,,0.00,VWS V14.01,2013-08-11 12:01:00,
2013-08-11 08:05:00,61.5,57.0,30.13,WSW,257,0.0,0.0,85,0.00,,,0.00,VWS V14.01,2013-08-11 12:05:00,
2013-08-11 08:06:00,61.7,57.2,30.13,WSW,257,0.0,0.0,85,0.00,,,0.00,VWS V14.01,2013-08-11 12:06:00,
2013-08-11 08:10:00,61.7,57.2,30.13,WSW,257,0.0,0.0,85,0.00,,,0.00,VWS V14.01,2013-08-11 12:10:00,
2013-08-11 08:11:00,61.9,57.0,30.13,WSW,257,0.0,0.0,84,0.00,,,0.00,VWS V14.01,2013-08-11 12:11:00,
2013-08-11 08:15:00,61.9,57.0,30.13,WSW,257,0.0,0.0,84,0.00,,,0.00,VWS V14.01,2013-08-11 12:15:00,
2013-08-11 08:16:00,62.1,57.2,30.13,WSW,257,0.0,0.0,84,0.00,,,0.00,VWS V14.01,2013-08-11 12:16:00,
2013-08-11 08:20:00,62.2,57.3,30.13,WSW,257,0.0,0.0,84,0.00,,,0.00,VWS V14.01,2013-08-11 12:20:00,
2013-08-11 08:21:00,62.2,57.0,30.13,WSW,257,0.0,0.0,83,0.00,,,0.00,VWS V14.01,2013-08-11 12:21:00,
2013-08-11 08:25:00,62.6,57.4,30.13,WSW,257,0.0,0.0,83,0.00,,,0.00,VWS V14.01,2013-08-11 12:25:00,
2013-08-11 08:26:00,62.8,57.5,30.13,WSW,257,0.0,0.0,83,0.00,,,0.00,VWS V14.01,2013-08-11 12:26:00,
2013-08-11 08:30:00,62.8,57.2,30.13,WSW,257,0.0,0.0,82,0.00,,,0.00,VWS V14.01,2013-08-11 12:30:00,
2013-08-11 08:32:00,62.8,57.2,30.13,WSW,257,0.0,0.0,82,0.00,,,0.00,VWS V14.01,2013-08-11 12:32:00,
2013-08-11 08:35:00,63.0,57.4,30.13,WSW,257,0.0,0.0,82,0.00,,,0.00,VWS V14.01,2013-08-11 12:35:00,
2013-08-11 08:37:00,63.0,57.0,30.13,WSW,257,0.0,0.0,81,0.00,,,0.00,VWS V14.01,2013-08-11 12:37:00,
2013-08-11 08:40:00,63.1,57.2,30.13,WSW,257,0.0,0.0,81,0.00,,,0.00,VWS V14.01,2013-08-11 12:40:00,
2013-08-11 08:42:00,63.3,57.4,30.13,WSW,257,0.0,0.0,81,0.00,,,0.00,VWS V14.01,2013-08-11 12:42:00,
2013-08-11 08:45:00,63.3,57.0,30.13,WSW,257,0.0,0.0,80,0.00,,,0.00,VWS V14.01,2013-08-11 12:45:00,
2013-08-11 08:47:00,63.3,57.0,30.13,WSW,257,0.0,0.0,80,0.00,,,0.00,VWS V14.01,2013-08-11 12:47:00,
2013-08-11 08:50:00,63.5,56.9,30.13,WSW,257,0.0,0.0,79,0.00,,,0.00,VWS V14.01,2013-08-11 12:50:00,
2013-08-11 08:52:00,63.7,57.0,30.13,WSW,257,0.0,0.0,79,0.00,,,0.00,VWS V14.01,2013-08-11 12:52:00,
2013-08-11 08:55:00,63.9,56.9,30.13,WSW,257,0.0,0.0,78,0.00,,,0.00,VWS V14.01,2013-08-11 12:55:00,
2013-08-11 08:57:00,64.0,57.0,30.13,WSW,257,0.0,0.0,78,0.00,,,0.00,VWS V14.01,2013-08-11 12:57:00,
2013-08-11 09:00:00,64.0,56.7,30.13,WSW,257,0.0,0.0,77,0.00,,,0.00,VWS V14.01,2013-08-11 13:00:00,
2013-08-11 09:02:00,64.4,56.7,30.13,WSW,257,0.0,0.0,76,0.00,,,0.00,VWS V14.01,2013-08-11 13:02:00,
2013-08-11 09:05:00,64.6,56.8,30.13,WSW,257,0.0,0.0,76,0.00,,,0.00,VWS V14.01,2013-08-11 13:05:00,
2013-08-11 09:07:00,64.8,56.7,30.13,WSW,257,0.0,0.0,75,0.00,,,0.00,VWS V14.01,2013-08-11 13:07:00,
2013-08-11 09:10:00,64.8,56.7,30.13,WSW,257,0.0,0.0,75,0.00,,,0.00,VWS V14.01,2013-08-11 13:10:00,
2013-08-11 09:12:00,65.1,56.6,30.13,WSW,257,0.0,0.0,74,0.00,,,0.00,VWS V14.01,2013-08-11 13:12:00,
2013-08-11 09:15:00,65.1,56.3,30.13,WSW,257,0.0,0.0,73,0.00,,,0.00,VWS V14.01,2013-08-11 13:15:00,
2013-08-11 09:18:00,65.5,56.2,30.13,WSW,257,0.0,0.0,72,0.00,,,0.00,VWS V14.01,2013-08-11 13:18:00,
2013-08-11 09:20:00,65.5,56.2,30.13,WSW,257,0.0,0.0,72,0.00,,,0.00,VWS V14.01,2013-08-11 13:20:00,
2013-08-11 09:24:00,65.8,56.2,30.13,WSW,257,0.0,0.0,71,0.00,,,0.00,VWS V14.01,2013-08-11 13:24:00,
2013-08-11 09:25:00,65.8,56.2,30.13,WSW,257,0.0,0.0,71,0.00,,,0.00,VWS V14.01,2013-08-11 13:25:00,
2013-08-11 09:29:00,66.0,56.0,30.13,WSW,257,0.0,0.0,70,0.00,,,0.00,VWS V14.01,2013-08-11 13:29:00,
2013-08-11 09:30:00,66.0,56.0,30.13,WSW,257,0.0,0.0,70,0.00,,,0.00,VWS V14.01,2013-08-11 13:30:00,
2013-08-11 09:34:00,66.0,55.6,30.13,WSW,257,0.0,0.0,69,0.00,,,0.00,VWS V14.01,2013-08-11 13:34:00,
2013-08-11 09:35:00,66.0,55.6,30.13,WSW,257,0.0,0.0,69,0.00,,,0.00,VWS V14.01,2013-08-11 13:35:00,
2013-08-11 09:39:00,66.4,54.7,30.13,WSW,257,0.0,0.0,66,0.00,,,0.00,VWS V14.01,2013-08-11 13:39:00,
2013-08-11 09:40:00,66.4,54.7,30.13,WSW,257,0.0,0.0,66,0.00,,,0.00,VWS V14.01,2013-08-11 13:40:00,
2013-08-11 09:44:00,66.4,53.8,30.13,WSW,257,0.0,0.0,64,0.00,,,0.00,VWS V14.01,2013-08-11 13:44:00,
2013-08-11 09:45:00,66.4,53.8,30.13,WSW,257,0.0,0.0,64,0.00,,,0.00,VWS V14.01,2013-08-11 13:45:00,
2013-08-11 09:50:00,66.7,53.8,30.13,WSW,257,0.0,0.0,63,0.00,,,0.00,VWS V14.01,2013-08-11 13:50:00,
2013-08-11 09:55:00,66.9,53.5,30.13,WSW,257,0.0,0.0,62,0.00,,,0.00,VWS V14.01,2013-08-11 13:55:00,
2013-08-11 10:00:00,66.7,52.9,30.13,WSW,257,0.0,0.0,61,0.00,,,0.00,VWS V14.01,2013-08-11 14:00:00,
2013-08-11 10:05:00,66.9,53.0,30.13,WSW,257,0.0,0.0,61,0.00,,,0.00,VWS V14.01,2013-08-11 14:05:00,
2013-08-11 10:06:00,67.1,53.2,30.13,WSW,257,0.0,0.0,61,0.00,,,0.00,VWS V14.01,2013-08-11 14:06:00,
2013-08-11 10:10:00,67.3,52.9,30.13,WSW,257,0.0,0.0,60,0.00,,,0.00,VWS V14.01,2013-08-11 14:10:00,
2013-08-11 10:11:00,67.3,52.9,30.13,WSW,257,0.0,0.0,60,0.00,,,0.00,VWS V14.01,2013-08-11 14:11:00,
2013-08-11 10:15:00,67.3,52.9,30.13,WSW,257,0.0,0.0,60,0.00,,,0.00,VWS V14.01,2013-08-11 14:15:00,
2013-08-11 10:16:00,67.3,52.9,30.13,WSW,257,0.0,0.0,60,0.00,,,0.00,VWS V14.01,2013-08-11 14:16:00,
2013-08-11 10:20:00,67.3,52.9,30.13,WSW,257,0.0,0.0,60,0.00,,,0.00,VWS V14.01,2013-08-11 14:20:00,
2013-08-11 10:22:00,67.5,53.1,30.13,WSW,257,0.0,0.0,60,0.00,,,0.00,VWS V14.01,2013-08-11 14:22:00,
2013-08-11 10:25:00,67.6,53.3,30.13,WSW,257,0.0,0.0,60,0.00,,,0.00,VWS V14.01,2013-08-11 14:25:00,
2013-08-11 10:27:00,67.5,53.1,30.13,WSW,257,0.0,0.0,60,0.00,,,0.00,VWS V14.01,2013-08-11 14:27:00,
2013-08-11 10:30:00,67.5,53.1,30.13,WSW,257,0.0,0.0,60,0.00,,,0.00,VWS V14.01,2013-08-11 14:30:00,
2013-08-11 10:32:00,67.6,53.3,30.13,WSW,257,0.0,0.0,60,0.00,,,0.00,VWS V14.01,2013-08-11 14:32:00,
2013-08-11 10:35:00,67.8,53.4,30.13,WSW,257,0.0,0.0,60,0.00,,,0.00,VWS V14.01,2013-08-11 14:35:00,
2013-08-11 10:37:00,67.8,53.4,30.13,WSW,257,0.0,0.0,60,0.00,,,0.00,VWS V14.01,2013-08-11 14:37:00,
2013-08-11 10:40:00,67.8,53.4,30.13,WSW,257,0.0,0.0,60,0.00,,,0.00,VWS V14.01,2013-08-11 14:40:00,
2013-08-11 10:43:00,67.6,53.3,30.13,WSW,257,0.0,0.0,60,0.00,,,0.00,VWS V14.01,2013-08-11 14:43:00,
2013-08-11 10:45:00,67.5,52.7,30.13,WSW,257,0.0,0.0,59,0.00,,,0.00,VWS V14.01,2013-08-11 14:45:00,
2013-08-11 10:48:00,67.5,52.7,30.13,WSW,257,0.0,0.0,59,0.00,,,0.00,VWS V14.01,2013-08-11 14:48:00,
2013-08-11 10:50:00,67.5,52.7,30.13,WSW,257,0.0,0.0,59,0.00,,,0.00,VWS V14.01,2013-08-11 14:50:00,
2013-08-11 10:53:00,67.6,53.3,30.13,WSW,257,0.0,0.0,60,0.00,,,0.00,VWS V14.01,2013-08-11 14:53:00,
2013-08-11 10:55:00,67.6,53.3,30.13,WSW,257,0.0,0.0,60,0.00,,,0.00,VWS V14.01,2013-08-11 14:55:00,
2013-08-11 10:59:00,67.6,53.7,30.13,WSW,257,0.0,0.0,61,0.00,,,0.00,VWS V14.01,2013-08-11 14:59:00,
2013-08-11 11:00:00,67.6,53.7,30.13,WSW,257,0.0,0.0,61,0.00,,,0.00,VWS V14.01,2013-08-11 15:00:00,
2013-08-11 11:04:00,67.8,54.3,30.13,WSW,257,0.0,0.0,62,0.00,,,0.00,VWS V14.01,2013-08-11 15:04:00,
2013-08-11 11:05:00,67.8,54.3,30.13,WSW,257,0.0,0.0,62,0.00,,,0.00,VWS V14.01,2013-08-11 15:05:00,
2013-08-11 11:10:00,68.0,54.5,30.13,WSW,257,0.0,0.0,62,0.00,,,0.00,VWS V14.01,2013-08-11 15:10:00,
2013-08-11 11:15:00,68.2,54.7,30.13,WSW,257,0.0,0.0,62,0.00,,,0.00,VWS V14.01,2013-08-11 15:15:00,
2013-08-11 11:20:00,68.0,54.1,30.13,WSW,257,0.0,0.0,61,0.00,,,0.00,VWS V14.01,2013-08-11 15:20:00,
2013-08-11 11:25:00,68.2,53.8,30.13,WSW,257,0.0,0.0,60,0.00,,,0.00,VWS V14.01,2013-08-11 15:25:00,
2013-08-11 11:30:00,68.7,54.3,30.13,WSW,257,0.0,0.0,60,0.00,,,0.00,VWS V14.01,2013-08-11 15:30:00,
2013-08-11 11:35:00,68.7,53.8,30.13,WSW,257,0.0,0.0,59,0.00,,,0.00,VWS V14.01,2013-08-11 15:35:00,
2013-08-11 11:36:00,68.9,54.0,30.13,WSW,257,0.0,0.0,59,0.00,,,0.00,VWS V14.01,2013-08-11 15:36:00,
2013-08-11 11:40:00,69.1,54.2,30.13,WSW,257,0.0,0.0,59,0.00,,,0.00,VWS V14.01,2013-08-11 15:40:00,
2013-08-11 11:41:00,69.4,54.5,30.13,WSW,257,0.0,0.0,59,0.00,,,0.00,VWS V14.01,2013-08-11 15:41:00,
2013-08-11 11:45:00,69.8,54.8,30.13,WSW,257,0.0,0.0,59,0.00,,,0.00,VWS V14.01,2013-08-11 15:45:00,
2013-08-11 11:47:00,69.8,54.4,30.13,WSW,257,0.0,0.0,58,0.00,,,0.00,VWS V14.01,2013-08-11 15:47:00,
2013-08-11 11:50:00,69.6,53.7,30.13,WSW,257,0.0,0.0,57,0.00,,,0.00,VWS V14.01,2013-08-11 15:50:00,
2013-08-11 11:52:00,69.4,53.6,30.13,WSW,257,0.0,0.0,57,0.00,,,0.00,VWS V14.01,2013-08-11 15:52:00,
2013-08-11 11:55:00,69.6,53.7,30.13,WSW,257,0.0,0.0,57,0.00,,,0.00,VWS V14.01,2013-08-11 15:55:00,
2013-08-11 11:58:00,70.0,53.6,30.13,WSW,257,0.0,0.0,56,0.00,,,0.00,VWS V14.01,2013-08-11 15:58:00,
2013-08-11 12:00:00,70.0,53.6,30.13,WSW,257,0.0,0.0,56,0.00,,,0.00,VWS V14.01,2013-08-11 16:00:00,
2013-08-11 12:03:00,70.0,52.6,30.13,WSW,257,3.6,5.8,54,0.00,,,0.00,VWS V14.01,2013-08-11 16:03:00,
2013-08-11 12:05:00,70.0,52.6,30.13,WSW,257,0.0,5.8,54,0.00,,,0.00,VWS V14.01,2013-08-11 16:05:00,
2013-08-11 12:08:00,69.8,51.9,30.13,WSW,257,0.0,0.0,53,0.00,,,0.00,VWS V14.01,2013-08-11 16:08:00,
2013-08-11 12:10:00,69.6,51.8,30.13,WSW,257,0.0,0.0,53,0.00,,,0.00,VWS V14.01,2013-08-11 16:10:00,
2013-08-11 12:14:00,70.0,52.6,30.13,WSW,257,0.0,4.0,54,0.00,,,0.00,VWS V14.01,2013-08-11 16:14:00,
2013-08-11 12:15:00,70.0,52.6,30.13,WSW,257,0.0,4.0,54,0.00,,,0.00,VWS V14.01,2013-08-11 16:15:00,
2013-08-11 12:19:00,69.8,52.4,30.13,WSW,257,0.0,0.0,54,0.00,,,0.00,VWS V14.01,2013-08-11 16:19:00,
2013-08-11 12:20:00,69.8,52.4,30.13,WSW,257,0.0,0.0,54,0.00,,,0.00,VWS V14.01,2013-08-11 16:20:00,
2013-08-11 12:24:00,69.1,52.2,30.10,WSW,257,0.0,0.0,55,0.00,,,0.00,VWS V14.01,2013-08-11 16:24:00,
2013-08-11 12:25:00,69.1,52.2,30.10,WSW,257,0.0,0.0,55,0.00,,,0.00,VWS V14.01,2013-08-11 16:25:00,
2013-08-11 12:29:00,68.9,52.1,30.10,WSW,257,0.0,0.0,55,0.00,,,0.00,VWS V14.01,2013-08-11 16:29:00,
2013-08-11 12:30:00,68.9,52.1,30.10,WSW,257,0.0,0.0,55,0.00,,,0.00,VWS V14.01,2013-08-11 16:30:00,
2013-08-11 12:34:00,69.4,53.1,30.10,WSW,257,0.0,0.0,56,0.00,,,0.00,VWS V14.01,2013-08-11 16:34:00,
2013-08-11 12:35:00,69.4,53.1,30.10,WSW,257,0.0,0.0,56,0.00,,,0.00,VWS V14.01,2013-08-11 16:35:00,
2013-08-11 12:39:00,69.8,53.9,30.10,WSW,257,0.0,0.0,57,0.00,,,0.00,VWS V14.01,2013-08-11 16:39:00,
2013-08-11 12:40:00,69.8,53.9,30.10,WSW,257,0.0,0.0,57,0.00,,,0.00,VWS V14.01,2013-08-11 16:40:00,
2013-08-11 12:44:00,70.3,54.9,30.10,WSW,257,0.0,0.0,58,0.00,,,0.00,VWS V14.01,2013-08-11 16:44:00,
2013-08-11 12:45:00,70.3,54.9,30.10,WSW,257,0.0,0.0,58,0.00,,,0.00,VWS V14.01,2013-08-11 16:45:00,
2013-08-11 12:49:00,70.3,54.9,30.10,WSW,257,0.0,0.0,58,0.00,,,0.00,VWS V14.01,2013-08-11 16:49:00,
2013-08-11 12:50:00,70.3,54.9,30.10,WSW,257,0.0,0.0,58,0.00,,,0.00,VWS V14.01,2013-08-11 16:50:00,
2013-08-11 12:54:00,71.2,55.7,30.10,WSW,257,0.0,0.0,58,0.00,,,0.00,VWS V14.01,2013-08-11 16:54:00,
2013-08-11 12:55:00,71.1,55.5,30.10,WSW,257,0.0,3.1,58,0.00,,,0.00,VWS V14.01,2013-08-11 16:55:00,
2013-08-11 13:00:00,71.4,54.9,30.10,WSW,257,0.0,0.0,56,0.00,,,0.00,VWS V14.01,2013-08-11 17:00:00,
2013-08-11 13:05:00,71.2,54.3,30.10,WSW,257,0.0,0.0,55,0.00,,,0.00,VWS V14.01,2013-08-11 17:05:00,
2013-08-11 13:10:00,71.2,54.3,30.10,WSW,257,0.0,0.0,55,0.00,,,0.00,VWS V14.01,2013-08-11 17:10:00,
2013-08-11 13:15:00,72.1,55.1,30.10,WSW,257,0.0,3.6,55,0.00,,,0.00,VWS V14.01,2013-08-11 17:15:00,
2013-08-11 13:20:00,72.7,54.6,30.10,WSW,257,0.0,0.0,53,0.00,,,0.00,VWS V14.01,2013-08-11 17:20:00,
2013-08-11 13:25:00,73.0,53.9,30.10,WSW,256,3.6,4.9,51,0.00,,,0.00,VWS V14.01,2013-08-11 17:25:00,
2013-08-11 13:30:00,73.0,53.3,30.10,West,263,0.0,5.8,50,0.00,,,0.00,VWS V14.01,2013-08-11 17:30:00,
2013-08-11 13:31:00,73.0,52.8,30.10,West,263,0.0,0.0,49,0.00,,,0.00,VWS V14.01,2013-08-11 17:31:00,
2013-08-11 13:35:00,73.2,52.9,30.10,West,263,0.0,0.0,49,0.00,,,0.00,VWS V14.01,2013-08-11 17:35:00,
2013-08-11 13:36:00,73.2,52.9,30.10,West,263,2.2,3.1,49,0.00,,,0.00,VWS V14.01,2013-08-11 17:36:00,
2013-08-11 13:40:00,73.2,52.4,30.10,West,260,5.8,9.2,48,0.00,,,0.00,VWS V14.01,2013-08-11 17:40:00,
2013-08-11 13:41:00,73.2,51.8,30.10,WSW,249,0.0,8.3,47,0.00,,,0.00,VWS V14.01,2013-08-11 17:41:00,
2013-08-11 13:45:00,73.2,51.8,30.10,West,276,0.0,8.3,47,0.00,,,0.00,VWS V14.01,2013-08-11 17:45:00,
2013-08-11 13:47:00,73.6,52.1,30.10,West,271,0.0,2.7,47,0.00,,,0.00,VWS V14.01,2013-08-11 17:47:00,
2013-08-11 13:50:00,73.8,52.3,30.10,West,271,0.0,2.7,47,0.00,,,0.00,VWS V14.01,2013-08-11 17:50:00,
2013-08-11 13:52:00,73.8,52.9,30.10,West,274,2.2,4.9,48,0.00,,,0.00,VWS V14.01,2013-08-11 17:52:00,
2013-08-11 13:55:00,73.8,52.3,30.10,West,274,0.0,4.9,47,0.00,,,0.00,VWS V14.01,2013-08-11 17:55:00,
2013-08-11 13:57:00,74.1,52.6,30.10,West,274,0.0,0.0,47,0.00,,,0.00,VWS V14.01,2013-08-11 17:57:00,
2013-08-11 14:00:00,74.1,52.6,30.10,West,274,0.0,2.2,47,0.00,,,0.00,VWS V14.01,2013-08-11 18:00:00,
2013-08-11 14:02:00,74.3,53.4,30.10,West,274,0.0,0.0,48,0.00,,,0.00,VWS V14.01,2013-08-11 18:02:00,
2013-08-11 14:05:00,74.3,53.4,30.10,West,274,0.0,0.0,48,0.00,,,0.00,VWS V14.01,2013-08-11 18:05:00,
2013-08-11 14:08:00,74.3,53.4,30.10,West,263,4.0,4.9,48,0.00,,,0.00,VWS V14.01,2013-08-11 18:08:00,
2013-08-11 14:10:00,74.3,53.4,30.10,WSW,237,3.6,6.7,48,0.00,,,0.00,VWS V14.01,2013-08-11 18:10:00,
2013-08-11 14:13:00,74.7,53.1,30.10,WSW,246,0.0,3.6,47,0.00,,,0.00,VWS V14.01,2013-08-11 18:13:00,
2013-08-11 14:15:00,74.7,53.1,30.10,WSW,246,0.0,3.6,47,0.00,,,0.00,VWS V14.01,2013-08-11 18:15:00,
2013-08-11 14:18:00,74.7,53.7,30.10,WSW,246,0.0,2.7,48,0.00,,,0.00,VWS V14.01,2013-08-11 18:18:00,
2013-08-11 14:20:00,74.8,53.8,30.10,WSW,246,0.0,2.7,48,0.00,,,0.00,VWS V14.01,2013-08-11 18:20:00,
2013-08-11 14:23:00,74.7,53.1,30.10,WSW,240,5.4,10.1,47,0.00,,,0.00,VWS V14.01,2013-08-11 18:23:00,
2013-08-11 14:25:00,74.7,52.5,30.10,WSW,240,0.0,10.1,46,0.00,,,0.00,VWS V14.01,2013-08-11 18:25:00,
2013-08-11 14:28:00,75.0,52.9,30.10,WSW,245,4.0,5.4,46,0.00,,,0.00,VWS V14.01,2013-08-11 18:28:00,
2013-08-11 14:30:00,75.0,52.9,30.10,WSW,245,0.0,5.4,46,0.00,,,0.00,VWS V14.01,2013-08-11 18:30:00,
2013-08-11 14:33:00,75.4,53.2,30.10,WSW,244,8.1,8.1,46,0.00,,,0.00,VWS V14.01,2013-08-11 18:33:00,
2013-08-11 14:35:00,75.4,53.2,30.10,West,260,6.3,8.1,46,0.00,,,0.00,VWS V14.01,2013-08-11 18:35:00,
2013-08-11 14:38:00,75.4,52.0,30.07,WSW,244,7.6,8.3,44,0.00,,,0.00,VWS V14.01,2013-08-11 18:38:00,
2013-08-11 14:40:00,75.4,52.0,30.07,WSW,251,3.6,8.3,44,0.00,,,0.00,VWS V14.01,2013-08-11 18:40:00,
2013-08-11 14:43:00,75.4,52.0,30.07,SSW,197,2.7,7.6,44,0.00,,,0.00,VWS V14.01,2013-08-11 18:43:00,
2013-08-11 14:45:00,75.4,52.0,30.07,SW,229,2.7,7.6,44,0.00,,,0.00,VWS V14.01,2013-08-11 18:45:00,
2013-08-11 14:48:00,75.4,51.3,30.07,West,260,0.0,6.3,43,0.00,,,0.00,VWS V14.01,2013-08-11 18:48:00,
2013-08-11 14:50:00,75.6,51.5,30.07,West,260,0.0,6.3,43,0.00,,,0.00,VWS V14.01,2013-08-11 18:50:00,
2013-08-11 14:53:00,75.4,52.0,30.07,West,260,0.0,0.0,44,0.00,,,0.00,VWS V14.01,2013-08-11 18:53:00,
2013-08-11 14:55:00,75.4,52.0,30.07,West,260,0.0,0.0,44,0.00,,,0.00,VWS V14.01,2013-08-11 18:55:00,
2013-08-11 14:58:00,75.4,52.6,30.07,West,260,0.0,3.1,45,0.00,,,0.00,VWS V14.01,2013-08-11 18:58:00,
2013-08-11 15:00:00,75.4,52.6,30.07,West,260,0.0,3.1,45,0.00,,,0.00,VWS V14.01,2013-08-11 19:00:00,
2013-08-11 15:04:00,75.6,53.3,30.07,West,263,0.0,0.0,46,0.00,,,0.00,VWS V14.01,2013-08-11 19:04:00,
2013-08-11 15:05:00,75.6,53.3,30.07,West,263,0.0,5.4,46,0.00,,,0.00,VWS V14.01,2013-08-11 19:05:00,
2013-08-11 15:09:00,76.1,53.8,30.07,West,274,0.0,0.0,46,0.00,,,0.00,VWS V14.01,2013-08-11 19:09:00,
2013-08-11 15:10:00,76.1,53.8,30.07,West,274,0.0,4.0,46,0.00,,,0.00,VWS V14.01,2013-08-11 19:10:00,
2013-08-11 15:14:00,75.4,52.6,30.07,West,274,0.0,0.0,45,0.00,,,0.00,VWS V14.01,2013-08-11 19:14:00,
2013-08-11 15:15:00,75.4,52.6,30.07,West,274,0.0,0.0,45,0.00,,,0.00,VWS V14.01,2013-08-11 19:15:00,
2013-08-11 15:19:00,76.1,53.8,30.07,WSW,255,0.0,2.7,46,0.00,,,0.00,VWS V14.01,2013-08-11 19:19:00,
2013-08-11 15:20:00,75.9,53.7,30.07,WSW,255,2.7,2.7,46,0.00,,,0.00,VWS V14.01,2013-08-11 19:20:00,
2013-08-11 15:24:00,75.7,54.1,30.07,WSW,255,0.0,0.0,47,0.00,,,0.00,VWS V14.01,2013-08-11 19:24:00,
2013-08-11 15:25:00,75.6,53.3,30.07,WSW,255,0.0,2.7,46,0.00,,,0.00,VWS V14.01,2013-08-11 19:25:00,
2013-08-11 15:29:00,75.4,53.8,30.07,WSW,255,0.0,0.0,47,0.00,,,0.00,VWS V14.01,2013-08-11 19:29:00,
2013-08-11 15:30:00,75.4,53.8,30.07,WSW,255,0.0,0.0,47,0.00,,,0.00,VWS V14.01,2013-08-11 19:30:00,
2013-08-11 15:34:00,76.1,55.0,30.07,WSW,255,0.0,0.0,48,0.00,,,0.00,VWS V14.01,2013-08-11 19:34:00,
2013-08-11 15:35:00,75.9,54.8,30.07,WSW,255,0.0,2.2,48,0.00,,,0.00,VWS V14.01,2013-08-11 19:35:00,
2013-08-11 15:39:00,76.5,55.3,30.07,West,259,0.0,0.0,48,0.00,,,0.00,VWS V14.01,2013-08-11 19:39:00,
2013-08-11 15:40:00,76.5,55.3,30.07,West,259,0.0,4.0,48,0.00,,,0.00,VWS V14.01,2013-08-11 19:40:00,
2013-08-11 15:45:00,76.6,54.9,30.07,SSW,205,0.0,0.0,47,0.00,,,0.00,VWS V14.01,2013-08-11 19:45:00,
2013-08-11 15:50:00,76.5,54.8,30.07,West,260,3.1,4.0,47,0.00,,,0.00,VWS V14.01,2013-08-11 19:50:00,
2013-08-11 15:55:00,76.6,54.3,30.07,WSW,245,0.0,0.0,46,0.00,,,0.00,VWS V14.01,2013-08-11 19:55:00,
2013-08-11 16:00:00,76.6,54.9,30.07,WSW,245,0.0,0.0,47,0.00,,,0.00,VWS V14.01,2013-08-11 20:00:00,
2013-08-11 16:05:00,76.8,55.1,30.07,WSW,245,0.0,3.1,47,0.00,,,0.00,VWS V14.01,2013-08-11 20:05:00,
2013-08-11 16:10:00,76.8,54.5,30.07,SW,230,0.0,2.7,46,0.00,,,0.00,VWS V14.01,2013-08-11 20:10:00,
2013-08-11 16:15:00,77.2,54.2,30.07,WSW,238,3.1,8.3,45,0.00,,,0.00,VWS V14.01,2013-08-11 20:15:00,
2013-08-11 16:20:00,77.7,54.7,30.07,West,265,0.0,0.0,45,0.00,,,0.00,VWS V14.01,2013-08-11 20:20:00,
2013-08-11 16:25:00,77.4,54.4,30.07,SW,235,2.7,3.6,45,0.00,,,0.00,VWS V14.01,2013-08-11 20:25:00,
2013-08-11 16:26:00,77.2,54.2,30.07,West,260,3.6,5.4,45,0.00,,,0.00,VWS V14.01,2013-08-11 20:26:00,
2013-08-11 16:30:00,76.8,53.9,30.07,West,265,0.0,5.8,45,0.00,,,0.00,VWS V14.01,2013-08-11 20:30:00,
2013-08-11 16:31:00,76.6,53.7,30.07,West,265,2.7,2.7,45,0.00,,,0.00,VWS V14.01,2013-08-11 20:31:00,
2013-08-11 16:35:00,76.5,53.6,30.07,West,265,0.0,2.7,45,0.00,,,0.00,VWS V14.01,2013-08-11 20:35:00,
2013-08-11 16:36:00,76.5,53.6,30.07,West,265,0.0,0.0,45,0.00,,,0.00,VWS V14.01,2013-08-11 20:36:00,
2013-08-11 16:40:00,76.6,54.9,30.07,West,265,0.0,0.0,47,0.00,,,0.00,VWS V14.01,2013-08-11 20:40:00,
2013-08-11 16:41:00,76.6,54.9,30.07,West,265,0.0,0.0,47,0.00,,,0.00,VWS V14.01,2013-08-11 20:41:00,
2013-08-11 16:45:00,76.8,55.7,30.07,West,265,0.0,0.0,48,0.00,,,0.00,VWS V14.01,2013-08-11 20:45:00,
2013-08-11 16:46:00,77.0,55.8,30.07,West,265,0.0,0.0,48,0.00,,,0.00,VWS V14.01,2013-08-11 20:46:00,
2013-08-11 16:50:00,77.2,56.0,30.07,West,265,0.0,0.0,48,0.00,,,0.00,VWS V14.01,2013-08-11 20:50:00,
2013-08-11 16:51:00,77.0,55.8,30.07,West,265,0.0,0.0,48,0.00,,,0.00,VWS V14.01,2013-08-11 20:51:00,
2013-08-11 16:55:00,76.8,56.2,30.07,West,265,0.0,0.0,49,0.00,,,0.00,VWS V14.01,2013-08-11 20:55:00,
2013-08-11 16:56:00,76.6,56.1,30.07,West,266,3.6,3.6,49,0.00,,,0.00,VWS V14.01,2013-08-11 20:56:00,
2013-08-11 17:00:00,76.3,55.7,30.07,West,266,0.0,3.6,49,0.00,,,0.00,VWS V14.01,2013-08-11 21:00:00,
2013-08-11 17:01:00,76.5,55.9,30.07,West,261,3.6,4.0,49,0.00,,,0.00,VWS V14.01,2013-08-11 21:01:00,
2013-08-11 17:05:00,76.5,55.9,30.07,WSW,257,3.6,4.0,49,0.00,,,0.00,VWS V14.01,2013-08-11 21:05:00,
2013-08-11 17:06:00,76.3,55.7,30.07,WSW,257,0.0,4.0,49,0.00,,,0.00,VWS V14.01,2013-08-11 21:06:00,
2013-08-11 17:10:00,76.6,56.1,30.04,WSW,257,0.0,4.0,49,0.00,,,0.00,VWS V14.01,2013-08-11 21:10:00,
2013-08-11 17:11:00,76.8,56.2,30.04,West,265,2.7,4.0,49,0.00,,,0.00,VWS V14.01,2013-08-11 21:11:00,
2013-08-11 17:15:00,76.8,56.2,30.04,West,265,0.0,4.9,49,0.00,,,0.00,VWS V14.01,2013-08-11 21:15:00,
2013-08-11 17:16:00,76.8,56.2,30.04,West,266,3.1,4.9,49,0.00,,,0.00,VWS V14.01,2013-08-11 21:16:00,
2013-08-11 17:20:00,76.8,56.2,30.04,West,265,3.1,4.9,49,0.00,,,0.00,VWS V14.01,2013-08-11 21:20:00,
2013-08-11 17:21:00,76.6,56.1,30.04,West,265,0.0,4.0,49,0.00,,,0.00,VWS V14.01,2013-08-11 21:21:00,
2013-08-11 17:25:00,76.8,56.8,30.04,West,266,2.2,4.0,50,0.00,,,0.00,VWS V14.01,2013-08-11 21:25:00,
2013-08-11 17:26:00,76.8,56.8,30.04,West,265,2.2,3.1,50,0.00,,,0.00,VWS V14.01,2013-08-11 21:26:00,
2013-08-11 17:30:00,76.8,56.8,30.04,West,262,2.2,5.4,50,0.00,,,0.00,VWS V14.01,2013-08-11 21:30:00,
2013-08-11 17:32:00,76.6,56.1,30.04,West,275,0.0,5.8,49,0.00,,,0.00,VWS V14.01,2013-08-11 21:32:00,
2013-08-11 17:35:00,76.5,55.9,30.04,West,270,2.2,5.8,49,0.00,,,0.00,VWS V14.01,2013-08-11 21:35:00,
2013-08-11 17:37:00,76.3,55.7,30.04,West,264,0.0,4.0,49,0.00,,,0.00,VWS V14.01,2013-08-11 21:37:00,
2013-08-11 17:40:00,76.3,55.7,30.04,West,264,3.6,4.0,49,0.00,,,0.00,VWS V14.01,2013-08-11 21:40:00,
2013-08-11 17:43:00,76.5,55.9,30.04,West,264,0.0,3.6,49,0.00,,,0.00,VWS V14.01,2013-08-11 21:43:00,
2013-08-11 17:45:00,76.5,56.5,30.04,West,264,0.0,3.6,50,0.00,,,0.00,VWS V14.01,2013-08-11 21:45:00,
2013-08-11 17:48:00,75.9,56.0,30.04,West,264,0.0,0.0,50,0.00,,,0.00,VWS V14.01,2013-08-11 21:48:00,
2013-08-11 17:50:00,75.7,55.8,30.04,West,281,0.0,4.9,50,0.00,,,0.00,VWS V14.01,2013-08-11 21:50:00,
2013-08-11 17:53:00,75.9,56.0,30.04,West,264,0.0,4.0,50,0.00,,,0.00,VWS V14.01,2013-08-11 21:53:00,
2013-08-11 17:55:00,75.9,56.0,30.04,West,264,0.0,4.0,50,0.00,,,0.00,VWS V14.01,2013-08-11 21:55:00,
2013-08-11 17:58:00,75.6,55.6,30.04,West,264,0.0,0.0,50,0.00,,,0.00,VWS V14.01,2013-08-11 21:58:00,
2013-08-11 18:00:00,75.4,56.0,30.04,West,264,0.0,2.2,51,0.00,,,0.00,VWS V14.01,2013-08-11 22:00:00,
2013-08-11 18:03:00,75.4,56.5,30.04,West,264,0.0,0.0,52,0.00,,,0.00,VWS V14.01,2013-08-11 22:03:00,
2013-08-11 18:05:00,75.4,56.5,30.04,West,264,0.0,0.0,52,0.00,,,0.00,VWS V14.01,2013-08-11 22:05:00,
2013-08-11 18:08:00,75.2,56.9,30.04,West,264,0.0,3.1,53,0.00,,,0.00,VWS V14.01,2013-08-11 22:08:00,
2013-08-11 18:10:00,75.2,57.4,30.04,West,264,0.0,3.1,54,0.00,,,0.00,VWS V14.01,2013-08-11 22:10:00,
2013-08-11 18:13:00,75.2,57.4,30.04,West,264,0.0,0.0,54,0.00,,,0.00,VWS V14.01,2013-08-11 22:13:00,
2013-08-11 18:15:00,75.0,57.3,30.04,West,264,0.0,0.0,54,0.00,,,0.00,VWS V14.01,2013-08-11 22:15:00,
2013-08-11 18:18:00,74.7,57.4,30.04,West,264,0.0,0.0,55,0.00,,,0.00,VWS V14.01,2013-08-11 22:18:00,
2013-08-11 18:20:00,74.7,57.4,30.04,West,264,0.0,0.0,55,0.00,,,0.00,VWS V14.01,2013-08-11 22:20:00,
2013-08-11 18:24:00,74.3,57.6,30.04,West,264,0.0,0.0,56,0.00,,,0.00,VWS V14.01,2013-08-11 22:24:00,
2013-08-11 18:25:00,74.3,57.6,30.04,West,264,0.0,0.0,56,0.00,,,0.00,VWS V14.01,2013-08-11 22:25:00,
2013-08-11 18:29:00,74.1,57.9,30.04,West,264,3.1,3.1,57,0.00,,,0.00,VWS V14.01,2013-08-11 22:29:00,
2013-08-11 18:30:00,74.1,57.9,30.04,West,264,3.1,3.1,57,0.00,,,0.00,VWS V14.01,2013-08-11 22:30:00,
2013-08-11 18:34:00,73.9,58.2,30.04,West,264,0.0,3.1,58,0.00,,,0.00,VWS V14.01,2013-08-11 22:34:00,
2013-08-11 18:35:00,73.9,58.2,30.04,West,264,0.0,3.1,58,0.00,,,0.00,VWS V14.01,2013-08-11 22:35:00,
2013-08-11 18:39:00,73.9,58.7,30.04,West,264,0.0,0.0,59,0.00,,,0.00,VWS V14.01,2013-08-11 22:39:00,
2013-08-11 18:40:00,73.9,58.7,30.04,West,264,0.0,0.0,59,0.00,,,0.00,VWS V14.01,2013-08-11 22:40:00,
2013-08-11 18:44:00,73.6,58.8,30.04,West,264,0.0,3.1,60,0.00,,,0.00,VWS V14.01,2013-08-11 22:44:00,
2013-08-11 18:45:00,73.6,58.8,30.04,West,264,0.0,3.1,60,0.00,,,0.00,VWS V14.01,2013-08-11 22:45:00,
2013-08-11 18:49:00,73.4,59.2,30.04,West,264,0.0,0.0,61,0.00,,,0.00,VWS V14.01,2013-08-11 22:49:00,
2013-08-11 18:50:00,73.4,59.2,30.04,West,264,0.0,0.0,61,0.00,,,0.00,VWS V14.01,2013-08-11 22:50:00,
2013-08-11 18:54:00,72.9,58.6,30.04,West,264,0.0,0.0,61,0.00,,,0.00,VWS V14.01,2013-08-11 22:54:00,
2013-08-11 18:55:00,72.9,58.6,30.04,West,264,0.0,0.0,61,0.00,,,0.00,VWS V14.01,2013-08-11 22:55:00,
2013-08-11 18:59:00,72.7,58.9,30.04,West,264,0.0,0.0,62,0.00,,,0.00,VWS V14.01,2013-08-11 22:59:00,
2013-08-11 19:00:00,72.7,58.9,30.04,West,264,0.0,0.0,62,0.00,,,0.00,VWS V14.01,2013-08-11 23:00:00,
2013-08-11 19:04:00,72.7,58.9,30.04,West,264,0.0,0.0,62,0.00,,,0.00,VWS V14.01,2013-08-11 23:04:00,
2013-08-11 19:05:00,72.7,58.9,30.04,West,264,0.0,0.0,62,0.00,,,0.00,VWS V14.01,2013-08-11 23:05:00,
2013-08-11 19:09:00,72.3,59.0,30.04,West,264,0.0,0.0,63,0.00,,,0.00,VWS V14.01,2013-08-11 23:09:00,
2013-08-11 19:10:00,72.5,59.2,30.04,West,264,0.0,0.0,63,0.00,,,0.00,VWS V14.01,2013-08-11 23:10:00,
2013-08-11 19:14:00,72.1,58.9,30.04,West,264,0.0,0.0,63,0.00,,,0.00,VWS V14.01,2013-08-11 23:14:00,
2013-08-11 19:15:00,72.3,59.0,30.04,West,264,0.0,0.0,63,0.00,,,0.00,VWS V14.01,2013-08-11 23:15:00,
2013-08-11 19:20:00,72.0,59.1,30.04,West,264,0.0,0.0,64,0.00,,,0.00,VWS V14.01,2013-08-11 23:20:00,
2013-08-11 19:25:00,72.0,59.6,30.04,West,264,0.0,0.0,65,0.00,,,0.00,VWS V14.01,2013-08-11 23:25:00,
2013-08-11 19:30:00,71.8,59.4,30.04,West,264,0.0,0.0,65,0.00,,,0.00,VWS V14.01,2013-08-11 23:30:00,
2013-08-11 19:35:00,72.0,60.0,30.04,West,264,0.0,0.0,66,0.00,,,0.00,VWS V14.01,2013-08-11 23:35:00,
2013-08-11 19:40:00,71.8,59.8,30.04,West,264,0.0,0.0,66,0.00,,,0.00,VWS V14.01,2013-08-11 23:40:00,
2013-08-11 19:45:00,71.4,59.9,30.04,West,264,0.0,0.0,67,0.00,,,0.00,VWS V14.01,2013-08-11 23:45:00,
2013-08-11 19:50:00,71.4,59.9,30.04,West,264,0.0,0.0,67,0.00,,,0.00,VWS V14.01,2013-08-11 23:50:00,
2013-08-11 19:55:00,71.4,60.3,30.04,West,264,0.0,0.0,68,0.00,,,0.00,VWS V14.01,2013-08-11 23:55:00,
2013-08-11 20:00:00,71.2,60.2,30.04,West,264,0.0,0.0,68,0.00,,,0.00,VWS V14.01,2013-08-12 00:00:00,
2013-08-11 20:01:00,71.2,60.2,30.04,West,264,0.0,0.0,68,0.00,,,0.00,VWS V14.01,2013-08-12 00:01:00,
2013-08-11 20:05:00,71.1,60.0,30.04,West,264,0.0,0.0,68,0.00,,,0.00,VWS V14.01,2013-08-12 00:05:00,
2013-08-11 20:06:00,71.1,60.4,30.04,West,264,0.0,0.0,69,0.00,,,0.00,VWS V14.01,2013-08-12 00:06:00,
2013-08-11 20:10:00,71.1,60.4,30.04,West,264,0.0,0.0,69,0.00,,,0.00,VWS V14.01,2013-08-12 00:10:00,
2013-08-11 20:11:00,71.1,60.4,30.04,West,264,0.0,0.0,69,0.00,,,0.00,VWS V14.01,2013-08-12 00:11:00,
2013-08-11 20:15:00,70.9,60.2,30.04,West,264,0.0,0.0,69,0.00,,,0.00,VWS V14.01,2013-08-12 00:15:00,
2013-08-11 20:16:00,70.9,60.2,30.04,West,264,0.0,0.0,69,0.00,,,0.00,VWS V14.01,2013-08-12 00:16:00,
2013-08-11 20:20:00,70.7,60.0,30.04,West,264,0.0,0.0,69,0.00,,,0.00,VWS V14.01,2013-08-12 00:20:00,
2013-08-11 20:21:00,70.7,60.5,30.04,West,264,0.0,0.0,70,0.00,,,0.00,VWS V14.01,2013-08-12 00:21:00,
2013-08-11 20:25:00,70.7,60.5,30.04,West,264,0.0,0.0,70,0.00,,,0.00,VWS V14.01,2013-08-12 00:25:00,
2013-08-11 20:26:00,70.5,60.3,30.04,West,264,0.0,0.0,70,0.00,,,0.00,VWS V14.01,2013-08-12 00:26:00,
2013-08-11 20:30:00,70.3,60.1,30.04,West,264,0.0,0.0,70,0.00,,,0.00,VWS V14.01,2013-08-12 00:30:00,
2013-08-11 20:31:00,70.3,60.1,30.04,West,264,0.0,0.0,70,0.00,,,0.00,VWS V14.01,2013-08-12 00:31:00,
2013-08-11 20:35:00,70.2,59.9,30.04,West,264,0.0,0.0,70,0.00,,,0.00,VWS V14.01,2013-08-12 00:35:00,
2013-08-11 20:37:00,70.2,59.9,30.04,West,264,0.0,0.0,70,0.00,,,0.00,VWS V14.01,2013-08-12 00:37:00,
2013-08-11 20:40:00,70.2,60.3,30.04,West,264,0.0,0.0,71,0.00,,,0.00,VWS V14.01,2013-08-12 00:40:00,
2013-08-11 20:42:00,70.2,60.3,30.04,West,264,0.0,0.0,71,0.00,,,0.00,VWS V14.01,2013-08-12 00:42:00,
2013-08-11 20:45:00,70.3,60.5,30.04,West,264,0.0,0.0,71,0.00,,,0.00,VWS V14.01,2013-08-12 00:45:00,
2013-08-11 20:47:00,70.2,60.3,30.04,West,264,0.0,0.0,71,0.00,,,0.00,VWS V14.01,2013-08-12 00:47:00,
2013-08-11 20:50:00,70.0,60.2,30.04,West,264,0.0,0.0,71,0.00,,,0.00,VWS V14.01,2013-08-12 00:50:00,
2013-08-11 20:52:00,69.8,60.0,30.04,West,264,0.0,0.0,71,0.00,,,0.00,VWS V14.01,2013-08-12 00:52:00,
2013-08-11 20:55:00,69.8,60.0,30.04,West,264,0.0,0.0,71,0.00,,,0.00,VWS V14.01,2013-08-12 00:55:00,
2013-08-11 20:58:00,69.6,60.2,30.04,West,263,0.0,0.0,72,0.00,,,0.00,VWS V14.01,2013-08-12 00:58:00,
2013-08-11 21:00:00,69.6,60.2,30.04,West,264,0.0,0.0,72,0.00,,,0.00,VWS V14.01,2013-08-12 01:00:00,
2013-08-11 21:03:00,69.6,60.6,30.04,West,264,0.0,0.0,73,0.00,,,0.00,VWS V14.01,2013-08-12 01:03:00,
2013-08-11 21:05:00,69.6,60.6,30.04,West,264,0.0,0.0,73,0.00,,,0.00,VWS V14.01,2013-08-12 01:05:00,
2013-08-11 21:08:00,69.6,60.6,30.04,West,264,0.0,0.0,73,0.00,,,0.00,VWS V14.01,2013-08-12 01:08:00,
2013-08-11 21:10:00,69.6,60.6,30.04,West,264,0.0,0.0,73,0.00,,,0.00,VWS V14.01,2013-08-12 01:10:00,
2013-08-11 21:13:00,69.6,61.0,30.04,West,264,0.0,0.0,74,0.00,,,0.00,VWS V14.01,2013-08-12 01:13:00,
2013-08-11 21:15:00,69.6,61.0,30.04,West,264,0.0,0.0,74,0.00,,,0.00,VWS V14.01,2013-08-12 01:15:00,
2013-08-11 21:18:00,69.4,60.8,30.04,West,264,0.0,0.0,74,0.00,,,0.00,VWS V14.01,2013-08-12 01:18:00,
2013-08-11 21:20:00,69.4,60.8,30.04,West,264,0.0,0.0,74,0.00,,,0.00,VWS V14.01,2013-08-12 01:20:00,
2013-08-11 21:23:00,69.3,60.6,30.04,West,264,0.0,0.0,74,0.00,,,0.00,VWS V14.01,2013-08-12 01:23:00,
2013-08-11 21:25:00,69.3,61.0,30.07,West,264,0.0,0.0,75,0.00,,,0.00,VWS V14.01,2013-08-12 01:25:00,
2013-08-11 21:28:00,69.4,61.2,30.07,West,264,0.0,0.0,75,0.00,,,0.00,VWS V14.01,2013-08-12 01:28:00,
2013-08-11 21:30:00,69.4,61.2,30.07,West,264,0.0,0.0,75,0.00,,,0.00,VWS V14.01,2013-08-12 01:30:00,
2013-08-11 21:34:00,69.4,61.2,30.07,West,264,0.0,0.0,75,0.00,,,0.00,VWS V14.01,2013-08-12 01:34:00,
2013-08-11 21:35:00,69.4,61.2,30.07,West,264,0.0,0.0,75,0.00,,,0.00,VWS V14.01,2013-08-12 01:35:00,
2013-08-11 21:39:00,69.4,61.5,30.04,West,264,0.0,0.0,76,0.00,,,0.00,VWS V14.01,2013-08-12 01:39:00,
2013-08-11 21:40:00,69.4,61.5,30.04,West,264,0.0,0.0,76,0.00,,,0.00,VWS V14.01,2013-08-12 01:40:00,
2013-08-11 21:44:00,69.3,61.4,30.04,West,264,0.0,0.0,76,0.00,,,0.00,VWS V14.01,2013-08-12 01:44:00,
2013-08-11 21:45:00,69.3,61.4,30.04,West,264,0.0,0.0,76,0.00,,,0.00,VWS V14.01,2013-08-12 01:45:00,
2013-08-11 21:49:00,69.3,61.4,30.04,West,264,0.0,0.0,76,0.00,,,0.00,VWS V14.01,2013-08-12 01:49:00,
2013-08-11 21:50:00,69.3,61.4,30.04,West,264,0.0,0.0,76,0.00,,,0.00,VWS V14.01,2013-08-12 01:50:00,
2013-08-11 21:54:00,69.1,61.6,30.04,West,264,0.0,0.0,77,0.00,,,0.00,VWS V14.01,2013-08-12 01:54:00,
2013-08-11 21:55:00,69.1,61.6,30.04,West,264,0.0,0.0,77,0.00,,,0.00,VWS V14.01,2013-08-12 01:55:00,
2013-08-11 21:59:00,68.9,61.4,30.04,West,264,0.0,0.0,77,0.00,,,0.00,VWS V14.01,2013-08-12 01:59:00,
2013-08-11 22:00:00,68.9,61.4,30.04,West,264,0.0,0.0,77,0.00,,,0.00,VWS V14.01,2013-08-12 02:00:00,
2013-08-11 22:05:00,68.7,61.2,30.04,West,264,0.0,0.0,77,0.00,,,0.00,VWS V14.01,2013-08-12 02:05:00,
2013-08-11 22:10:00,68.7,61.6,30.04,West,264,0.0,0.0,78,0.00,,,0.00,VWS V14.01,2013-08-12 02:10:00,
2013-08-11 22:15:00,68.7,61.6,30.04,West,264,0.0,0.0,78,0.00,,,0.00,VWS V14.01,2013-08-12 02:15:00,
2013-08-11 22:16:00,68.5,61.4,30.04,West,264,0.0,0.0,78,0.00,,,0.00,VWS V14.01,2013-08-12 02:16:00,
2013-08-11 22:20:00,68.5,61.4,30.04,West,264,0.0,0.0,78,0.00,,,0.00,VWS V14.01,2013-08-12 02:20:00,
2013-08-11 22:21:00,68.5,61.4,30.04,West,264,0.0,0.0,78,0.00,,,0.00,VWS V14.01,2013-08-12 02:21:00,
2013-08-11 22:25:00,68.4,61.2,30.04,West,264,0.0,0.0,78,0.00,,,0.00,VWS V14.01,2013-08-12 02:25:00,
2013-08-11 22:26:00,68.2,61.1,30.04,West,264,0.0,0.0,78,0.00,,,0.00,VWS V14.01,2013-08-12 02:26:00,
2013-08-11 22:30:00,68.2,61.1,30.04,West,264,0.0,0.0,78,0.00,,,0.00,VWS V14.01,2013-08-12 02:30:00,
2013-08-11 22:31:00,68.2,61.4,30.04,West,264,0.0,0.0,79,0.00,,,0.00,VWS V14.01,2013-08-12 02:31:00,
2013-08-11 22:35:00,68.0,61.2,30.04,West,264,0.0,0.0,79,0.00,,,0.00,VWS V14.01,2013-08-12 02:35:00,
2013-08-11 22:36:00,68.0,61.2,30.04,West,264,0.0,0.0,79,0.00,,,0.00,VWS V14.01,2013-08-12 02:36:00,
2013-08-11 22:40:00,68.0,61.2,30.04,West,264,0.0,0.0,79,0.00,,,0.00,VWS V14.01,2013-08-12 02:40:00,
2013-08-11 22:41:00,68.0,61.2,30.04,West,264,0.0,0.0,79,0.00,,,0.00,VWS V14.01,2013-08-12 02:41:00,
2013-08-11 22:45:00,67.8,61.1,30.04,West,264,0.0,0.0,79,0.00,,,0.00,VWS V14.01,2013-08-12 02:45:00,
2013-08-11 22:47:00,67.8,61.4,30.04,West,264,0.0,0.0,80,0.00,,,0.00,VWS V14.01,2013-08-12 02:47:00,
2013-08-11 22:50:00,67.8,61.4,30.04,West,264,0.0,0.0,80,0.00,,,0.00,VWS V14.01,2013-08-12 02:50:00,
2013-08-11 22:52:00,68.0,61.6,30.04,West,264,0.0,0.0,80,0.00,,,0.00,VWS V14.01,2013-08-12 02:52:00,
2013-08-11 22:55:00,68.0,61.6,30.04,West,264,0.0,0.0,80,0.00,,,0.00,VWS V14.01,2013-08-12 02:55:00,
2013-08-11 22:57:00,68.0,61.6,30.04,West,264,0.0,0.0,80,0.00,,,0.00,VWS V14.01,2013-08-12 02:57:00,
2013-08-11 23:00:00,67.8,61.4,30.04,West,264,0.0,0.0,80,0.00,,,0.00,VWS V14.01,2013-08-12 03:00:00,
2013-08-11 23:03:00,67.6,61.3,30.04,West,264,0.0,0.0,80,0.00,,,0.00,VWS V14.01,2013-08-12 03:03:00,
2013-08-11 23:05:00,67.6,61.3,30.04,West,264,0.0,0.0,80,0.00,,,0.00,VWS V14.01,2013-08-12 03:05:00,
2013-08-11 23:08:00,67.8,61.4,30.04,West,264,0.0,0.0,80,0.00,,,0.00,VWS V14.01,2013-08-12 03:08:00,
2013-08-11 23:10:00,67.6,61.3,30.04,West,264,0.0,0.0,80,0.00,,,0.00,VWS V14.01,2013-08-12 03:10:00,
2013-08-11 23:13:00,67.6,61.3,30.04,West,264,0.0,0.0,80,0.00,,,0.00,VWS V14.01,2013-08-12 03:13:00,
2013-08-11 23:15:00,67.6,61.6,30.04,West,264,0.0,0.0,81,0.00,,,0.00,VWS V14.01,2013-08-12 03:15:00,
2013-08-11 23:18:00,67.6,61.6,30.04,West,264,0.0,0.0,81,0.00,,,0.00,VWS V14.01,2013-08-12 03:18:00,
2013-08-11 23:20:00,67.6,61.6,30.04,West,264,0.0,0.0,81,0.00,,,0.00,VWS V14.01,2013-08-12 03:20:00,
2013-08-11 23:23:00,67.6,61.6,30.04,West,264,0.0,0.0,81,0.00,,,0.00,VWS V14.01,2013-08-12 03:23:00,
2013-08-11 23:25:00,67.6,61.6,30.04,West,264,0.0,0.0,81,0.00,,,0.00,VWS V14.01,2013-08-12 03:25:00,
2013-08-11 23:28:00,67.5,61.4,30.04,West,264,0.0,0.0,81,0.00,,,0.00,VWS V14.01,2013-08-12 03:28:00,
2013-08-11 23:30:00,67.5,61.4,30.04,West,264,0.0,0.0,81,0.00,,,0.00,VWS V14.01,2013-08-12 03:30:00,
2013-08-11 23:34:00,67.3,61.3,30.04,West,264,0.0,0.0,81,0.00,,,0.00,VWS V14.01,2013-08-12 03:34:00,
2013-08-11 23:35:00,67.1,61.1,30.04,West,264,0.0,0.0,81,0.00,,,0.00,VWS V14.01,2013-08-12 03:35:00,
2013-08-11 23:39:00,67.1,61.1,30.04,West,264,0.0,0.0,81,0.00,,,0.00,VWS V14.01,2013-08-12 03:39:00,
2013-08-11 23:40:00,67.1,61.1,30.04,West,264,0.0,0.0,81,0.00,,,0.00,VWS V14.01,2013-08-12 03:40:00,
2013-08-11 23:44:00,67.1,61.1,30.04,West,264,0.0,0.0,81,0.00,,,0.00,VWS V14.01,2013-08-12 03:44:00,
2013-08-11 23:45:00,67.1,61.1,30.04,West,264,0.0,0.0,81,0.00,,,0.00,VWS V14.01,2013-08-12 03:45:00,
2013-08-11 23:49:00,67.3,61.3,30.04,West,264,0.0,0.0,81,0.00,,,0.00,VWS V14.01,2013-08-12 03:49:00,
2013-08-11 23:50:00,67.3,61.3,30.04,West,264,0.0,0.0,81,0.00,,,0.00,VWS V14.01,2013-08-12 03:50:00,
2013-08-11 23:55:00,67.3,61.3,30.04,West,264,0.0,0.0,81,0.00,,,0.00,VWS V14.01,2013-08-12 03:55:00,